Time;durP1;ratioP1;P1;durP2;ratioP2;P2;SDS_P1;SDS_P2;PMS_P1;PMS_P2;Temp;Humidity;BMP_temperature;BMP_pressure;BME280_temperature;BME280_humidity;BME280_pressure;Samples;Min_cycle;Max_cycle;Signal;HPM_P1;HPM_P2
2021/05/21 00:00:58;;;;;;;0.6;0.4;;;;;;;;;;;;;
2021/05/21 00:03:23;;;;;;;0.3;0.3;;;;;;;;;;;;;
2021/05/21 00:05:49;;;;;;;0.3;0.3;;;;;;;;;;;;;
2021/05/21 00:08:14;;;;;;;0.8;0.6;;;;;;;;;;;;;
2021/05/21 00:13:18;;;;;;;0.6;0.6;;;;;;;;;;;;;
2021/05/21 00:15:44;;;;;;;0.3;0.3;;;;;;;;;;;;;
2021/05/21 00:18:10;;;;;;;1.2;0.6;;;;;;;;;;;;;
2021/05/21 00:20:35;;;;;;;1;0.6;;;;;;;;;;;;;
2021/05/21 00:23:00;;;;;;;0.2;0.2;;;;;;;;;;;;;
2021/05/21 00:25:26;;;;;;;0.3;0.3;;;;;;;;;;;;;
2021/05/21 00:27:51;;;;;;;0.3;0.3;;;;;;;;;;;;;
2021/05/21 00:30:18;;;;;;;0.2;0.2;;;;;;;;;;;;;
2021/05/21 00:32:43;;;;;;;0.3;0.3;;;;;;;;;;;;;
2021/05/21 00:35:09;;;;;;;0.6;0.4;;;;;;;;;;;;;
2021/05/21 00:37:34;;;;;;;0.2;0.2;;;;;;;;;;;;;
2021/05/21 00:40:00;;;;;;;0.1;0.1;;;;;;;;;;;;;
2021/05/21 00:42:25;;;;;;;0.5;0.4;;;;;;;;;;;;;
2021/05/21 00:44:51;;;;;;;0.2;0.2;;;;;;;;;;;;;
2021/05/21 00:47:16;;;;;;;0.6;0.5;;;;;;;;;;;;;
2021/05/21 00:49:41;;;;;;;0.3;0.2;;;;;;;;;;;;;
2021/05/21 00:52:07;;;;;;;1.3;0.4;;;;;;;;;;;;;
2021/05/21 00:54:32;;;;;;;0.7;0.4;;;;;;;;;;;;;
2021/05/21 00:56:57;;;;;;;0.2;0.2;;;;;;;;;;;;;
2021/05/21 00:59:22;;;;;;;0.4;0.3;;;;;;;;;;;;;
2021/05/21 01:01:47;;;;;;;0.4;0.4;;;;;;;;;;;;;
2021/05/21 01:04:13;;;;;;;7.7;0.3;;;;;;;;;;;;;
2021/05/21 01:06:38;;;;;;;0.3;0.3;;;;;;;;;;;;;
2021/05/21 01:09:04;;;;;;;0.2;0.2;;;;;;;;;;;;;
2021/05/21 01:11:29;;;;;;;0.6;0.5;;;;;;;;;;;;;
2021/05/21 01:13:54;;;;;;;0.1;0.1;;;;;;;;;;;;;
2021/05/21 01:16:19;;;;;;;0.9;0.5;;;;;;;;;;;;;
2021/05/21 01:26:41;;;;;;;0.3;0.3;;;;;;;;;;;;;
2021/05/21 01:29:07;;;;;;;2;0.5;;;;;;;;;;;;;
2021/05/21 01:31:32;;;;;;;0.8;0.4;;;;;;;;;;;;;
2021/05/21 01:33:57;;;;;;;0.2;0.2;;;;;;;;;;;;;
2021/05/21 01:36:22;;;;;;;0.2;0.2;;;;;;;;;;;;;
2021/05/21 01:38:47;;;;;;;2.6;0.5;;;;;;;;;;;;;
2021/05/21 01:41:12;;;;;;;0.7;0.5;;;;;;;;;;;;;
2021/05/21 01:43:52;;;;;;;0.8;0.6;;;;;;;;;;;;;
2021/05/21 01:46:02;;;;;;;0.3;0.3;;;;;;;;;;;;;
2021/05/21 01:48:28;;;;;;;1;0.2;;;;;;;;;;;;;
2021/05/21 01:50:55;;;;;;;0.3;0.3;;;;;;;;;;;;;
2021/05/21 01:53:21;;;;;;;0.4;0.3;;;;;;;;;;;;;
2021/05/21 01:55:46;;;;;;;0.3;0.3;;;;;;;;;;;;;
2021/05/21 01:58:11;;;;;;;0.2;0.2;;;;;;;;;;;;;
2021/05/21 02:00:36;;;;;;;0.2;0.2;;;;;;;;;;;;;
2021/05/21 02:03:01;;;;;;;0;0;;;;;;;;;;;;;
2021/05/21 02:05:26;;;;;;;0.2;0.2;;;;;;;;;;;;;
2021/05/21 02:07:52;;;;;;;0.4;0.2;;;;;;;;;;;;;
2021/05/21 02:10:29;;;;;;;0.4;0.4;;;;;;;;;;;;;
2021/05/21 02:12:54;;;;;;;1.4;0.6;;;;;;;;;;;;;
2021/05/21 02:15:20;;;;;;;0.8;0.5;;;;;;;;;;;;;
2021/05/21 02:17:45;;;;;;;0.3;0.3;;;;;;;;;;;;;
2021/05/21 02:20:10;;;;;;;0.3;0.3;;;;;;;;;;;;;
2021/05/21 02:25:05;;;;;;;3.2;0.7;;;;;;;;;;;;;
2021/05/21 02:27:32;;;;;;;0.7;0.5;;;;;;;;;;;;;
2021/05/21 02:29:57;;;;;;;0.4;0.3;;;;;;;;;;;;;
2021/05/21 02:32:23;;;;;;;0.2;0.2;;;;;;;;;;;;;
2021/05/21 02:34:48;;;;;;;0.8;0.5;;;;;;;;;;;;;
2021/05/21 02:37:14;;;;;;;3.1;0.6;;;;;;;;;;;;;
2021/05/21 02:39:39;;;;;;;0.5;0.5;;;;;;;;;;;;;
2021/05/21 02:42:06;;;;;;;0.4;0.3;;;;;;;;;;;;;
2021/05/21 02:44:31;;;;;;;2;0.5;;;;;;;;;;;;;
2021/05/21 02:46:57;;;;;;;0.9;0.6;;;;;;;;;;;;;
2021/05/21 02:49:22;;;;;;;1.7;0.6;;;;;;;;;;;;;
2021/05/21 02:51:47;;;;;;;1;0.4;;;;;;;;;;;;;
2021/05/21 02:54:13;;;;;;;0.2;0.2;;;;;;;;;;;;;
2021/05/21 02:56:38;;;;;;;0.4;0.2;;;;;;;;;;;;;
2021/05/21 02:59:03;;;;;;;0.3;0.3;;;;;;;;;;;;;
2021/05/21 03:01:28;;;;;;;0.6;0.3;;;;;;;;;;;;;
2021/05/21 03:03:53;;;;;;;0.4;0.4;;;;;;;;;;;;;
2021/05/21 03:06:19;;;;;;;0.6;0.6;;;;;;;;;;;;;
2021/05/21 03:08:44;;;;;;;4.4;0.5;;;;;;;;;;;;;
2021/05/21 03:11:09;;;;;;;2.6;0.5;;;;;;;;;;;;;
2021/05/21 03:13:37;;;;;;;0.6;0.6;;;;;;;;;;;;;
2021/05/21 03:16:02;;;;;;;0.4;0.3;;;;;;;;;;;;;
2021/05/21 03:18:27;;;;;;;0.3;0.3;;;;;;;;;;;;;
2021/05/21 03:20:53;;;;;;;0.2;0.2;;;;;;;;;;;;;
2021/05/21 03:23:18;;;;;;;0.6;0.4;;;;;;;;;;;;;
2021/05/21 03:25:43;;;;;;;2.3;0.5;;;;;;;;;;;;;
2021/05/21 03:28:08;;;;;;;0.1;0.1;;;;;;;;;;;;;
2021/05/21 03:30:33;;;;;;;0.6;0.3;;;;;;;;;;;;;
2021/05/21 03:32:59;;;;;;;0.2;0.2;;;;;;;;;;;;;
2021/05/21 03:35:24;;;;;;;0.3;0.3;;;;;;;;;;;;;
2021/05/21 03:37:49;;;;;;;0.6;0.4;;;;;;;;;;;;;
2021/05/21 03:40:14;;;;;;;1.2;0.6;;;;;;;;;;;;;
2021/05/21 03:42:39;;;;;;;0.2;0.2;;;;;;;;;;;;;
2021/05/21 03:45:05;;;;;;;0.8;0.6;;;;;;;;;;;;;
2021/05/21 03:47:30;;;;;;;1.8;0.7;;;;;;;;;;;;;
2021/05/21 03:49:55;;;;;;;0.4;0.3;;;;;;;;;;;;;
2021/05/21 03:52:20;;;;;;;0.4;0.4;;;;;;;;;;;;;
2021/05/21 03:54:45;;;;;;;0.2;0.2;;;;;;;;;;;;;
2021/05/21 03:57:10;;;;;;;0.7;0.4;;;;;;;;;;;;;
2021/05/21 03:59:35;;;;;;;0.2;0.2;;;;;;;;;;;;;
2021/05/21 04:02:30;;;;;;;0.3;0.3;;;;;;;7.09;82.49219;936.8893;;;;
2021/05/21 04:04:55;;;;;;;0.7;0.7;;;;;;;7.07;82.77051;936.9006;;;;
2021/05/21 04:07:20;;;;;;;1.2;0.8;;;;;;;7.07;82.22656;936.8247;;;;
2021/05/21 04:09:46;;;;;;;1;0.6;;;;;;;7.05;81.98535;936.7056;;;;
2021/05/21 04:12:11;;;;;;;0.4;0.4;;;;;;;7.12;81.93164;936.7076;;;;
2021/05/21 04:15:10;;;;;;;0.8;0.5;;;;;;;7.21;81.98242;936.7034;;;;
2021/05/21 04:17:39;;;;;;;0.6;0.5;;;;;;;7.25;81.34375;936.5323;;;;
2021/05/21 04:20:04;;;;;;;0.1;0.1;;;;;;;7.37;81.08398;936.5639;;;;
2021/05/21 04:22:29;;;;;;;0.6;0.4;;;;;;;7.41;80.83008;936.5452;;;;
2021/05/21 04:24:54;;;;;;;0.6;0.4;;;;;;;7.48;80.49219;936.5496;;;;
2021/05/21 04:27:19;;;;;;;0.9;0.4;;;;;;;7.42;80.7998;936.478;;;;
2021/05/21 04:29:48;;;;;;;0.4;0.4;;;;;;;7.51;80.66797;936.474;;;;
2021/05/21 04:32:13;;;;;;;0.8;0.6;;;;;;;7.59;80.69629;936.5452;;;;
2021/05/21 04:34:39;;;;;;;0.8;0.7;;;;;;;7.61;80.66406;936.4817;;;;
2021/05/21 04:37:04;;;;;;;1.1;0.7;;;;;;;7.56;80.69922;936.364;;;;
2021/05/21 04:39:32;;;;;;;0.5;0.5;;;;;;;7.7;80.65918;936.4103;;;;
2021/05/21 04:41:57;;;;;;;0.6;0.6;;;;;;;7.69;80.73535;936.3887;;;;
2021/05/21 04:44:26;;;;;;;0.3;0.3;;;;;;;7.48;80.35449;936.403;;;;
2021/05/21 04:46:51;;;;;;;0.4;0.4;;;;;;;7.54;80.65039;936.3897;;;;
2021/05/21 04:49:32;;;;;;;1.5;0.4;;;;;;;7.82;79.70605;936.3198;;;;
2021/05/21 04:51:41;;;;;;;0.4;0.4;;;;;;;7.93;79.10156;936.2542;;;;
2021/05/21 04:54:06;;;;;;;4.3;1;;;;;;;8.09;78.3916;936.2776;;;;
2021/05/21 04:56:32;;;;;;;0.4;0.4;;;;;;;8.25;78.19434;936.2549;;;;
2021/05/21 04:58:57;;;;;;;0.8;0.3;;;;;;;8.33;76.78809;936.2949;;;;
2021/05/21 05:01:22;;;;;;;0.2;0.2;;;;;;;8.33;75.07617;936.3006;;;;
2021/05/21 05:03:47;;;;;;;0.2;0.2;;;;;;;8.45;74.54883;936.337;;;;
2021/05/21 05:06:12;;;;;;;1.8;0.4;;;;;;;8.48;75.06543;936.2461;;;;
2021/05/21 05:08:40;;;;;;;0.2;0.2;;;;;;;8.56;74.25098;936.1711;;;;
2021/05/21 05:11:05;;;;;;;0.8;0.7;;;;;;;8.63;75.92383;936.3041;;;;
2021/05/21 05:13:30;;;;;;;0.4;0.4;;;;;;;8.82;77.20605;936.2773;;;;
2021/05/21 05:15:57;;;;;;;0.5;0.4;;;;;;;8.83;75.22949;936.241;;;;
2021/05/21 05:18:23;;;;;;;1.2;0.5;;;;;;;8.82;76.1377;936.2425;;;;
2021/05/21 05:21:22;;;;;;;0.9;0.4;;;;;;;8.92;76.48633;936.1262;;;;
2021/05/21 05:23:32;;;;;;;0.3;0.3;;;;;;;8.94;75.13574;936.2209;;;;
2021/05/21 05:25:59;;;;;;;0.3;0.2;;;;;;;8.99;75.65723;936.1152;;;;
2021/05/21 05:28:24;;;;;;;0.2;0.2;;;;;;;9.09;74.3418;936.0125;;;;
2021/05/21 05:30:53;;;;;;;0.5;0.4;;;;;;;9.12;74.4375;936.0231;;;;
2021/05/21 05:33:18;;;;;;;0.7;0.4;;;;;;;9.21;74.46387;936.0408;;;;
2021/05/21 05:35:48;;;;;;;2.2;0.5;;;;;;;9.42;74.80762;936.038;;;;
2021/05/21 05:38:16;;;;;;;0.2;0.2;;;;;;;9.35;70.60645;935.979;;;;
2021/05/21 05:40:41;;;;;;;0.2;0.2;;;;;;;9.24;71.25879;935.9579;;;;
2021/05/21 05:43:06;;;;;;;0.5;0.3;;;;;;;9.28;71.88281;935.8798;;;;
2021/05/21 05:45:31;;;;;;;0.2;0.2;;;;;;;9.32;70.63477;935.7999;;;;
2021/05/21 05:47:56;;;;;;;2.6;0.6;;;;;;;9.55;71.74414;935.8175;;;;
2021/05/21 05:50:22;;;;;;;0.2;0.1;;;;;;;9.76;71.27832;935.7656;;;;
2021/05/21 05:52:47;;;;;;;0.3;0.3;;;;;;;9.96;71.1748;935.8652;;;;
2021/05/21 05:55:14;;;;;;;0.5;0.3;;;;;;;10.13;71.08691;935.8286;;;;
2021/05/21 05:57:39;;;;;;;0.7;0.2;;;;;;;10.26;70.61719;935.7855;;;;
2021/05/21 06:00:04;;;;;;;1.2;0.7;;;;;;;10.3;70.29492;935.7809;;;;
2021/05/21 06:02:29;;;;;;;1.3;0.8;;;;;;;10.23;69.84863;935.798;;;;
2021/05/21 06:04:56;;;;;;;1.7;0.5;;;;;;;10.44;69.98633;935.806;;;;
2021/05/21 06:07:19;;;;;;;0.8;0.5;;;;;;;10.63;68.76074;935.8105;;;;
2021/05/21 06:09:57;;;;;;;0.3;0.3;;;;;;;10.73;70.99414;935.7791;;;;
2021/05/21 06:12:26;;;;;;;2.3;0.5;;;;;;;10.81;67.41895;935.7564;;;;
2021/05/21 06:14:51;;;;;;;0.6;0.4;;;;;;;10.93;68.68262;935.7261;;;;
2021/05/21 06:17:18;;;;;;;0.4;0.4;;;;;;;11.04;69.07715;935.7236;;;;
2021/05/21 06:19:42;;;;;;;1.5;0.5;;;;;;;11.26;69.21484;935.7612;;;;
2021/05/21 06:22:06;;;;;;;2.6;0.4;;;;;;;11.35;68.29102;935.6362;;;;
2021/05/21 06:24:31;;;;;;;1.6;0.8;;;;;;;11.52;66.74023;935.5882;;;;
2021/05/21 06:27:18;;;;;;;0.4;0.4;;;;;;;11.5;62.83398;935.7405;;;;
2021/05/21 06:29:25;;;;;;;1.2;0.7;;;;;;;11.56;64.91406;935.6608;;;;
2021/05/21 06:31:51;;;;;;;2.6;0.8;;;;;;;11.76;64.91016;935.6038;;;;
2021/05/21 06:34:16;;;;;;;0.8;0.4;;;;;;;11.95;62.37109;935.6092;;;;
2021/05/21 06:36:42;;;;;;;0.9;0.5;;;;;;;12.37;64.08301;935.5798;;;;
2021/05/21 06:39:08;;;;;;;0.8;0.5;;;;;;;12.85;64.06348;935.5634;;;;
2021/05/21 06:41:36;;;;;;;1.2;0.6;;;;;;;13.29;61.61035;935.468;;;;
2021/05/21 06:44:01;;;;;;;3.5;0.6;;;;;;;13.61;61.03613;935.5037;;;;
2021/05/21 06:46:28;;;;;;;1.3;0.7;;;;;;;13.53;60.11621;935.43;;;;
2021/05/21 06:49:01;;;;;;;0.5;0.5;;;;;;;13.64;58.6709;935.4406;;;;
2021/05/21 06:51:26;;;;;;;1.3;0.8;;;;;;;13.75;58.86816;935.3911;;;;
2021/05/21 06:54:15;;;;;;;0.9;0.7;;;;;;;13.92;58.55859;935.3364;;;;
2021/05/21 06:56:42;;;;;;;0.7;0.5;;;;;;;13.85;58.3418;935.3738;;;;
2021/05/21 06:59:07;;;;;;;0.9;0.5;;;;;;;13.92;58.15625;935.2659;;;;
2021/05/21 07:01:35;;;;;;;0.5;0.5;;;;;;;13.79;57.4834;935.2108;;;;
2021/05/21 07:04:00;;;;;;;0.9;0.5;;;;;;;13.92;57.68457;935.0939;;;;
2021/05/21 07:06:27;;;;;;;2.1;0.7;;;;;;;13.86;58.61914;935.1608;;;;
2021/05/21 07:08:52;;;;;;;2.1;0.7;;;;;;;13.96;59.03711;935.0887;;;;
2021/05/21 07:11:20;;;;;;;2.1;0.3;;;;;;;14.04;54.86914;935.0619;;;;
2021/05/21 07:13:45;;;;;;;2.1;0.6;;;;;;;14.1;55.40625;935.0461;;;;
2021/05/21 07:16:10;;;;;;;1.8;0.6;;;;;;;13.79;55.33203;935.0986;;;;
2021/05/21 07:18:39;;;;;;;0.9;0.4;;;;;;;13.88;57.41504;934.9774;;;;
2021/05/21 07:21:09;;;;;;;0.8;0.4;;;;;;;13.93;55.77539;935.0058;;;;
2021/05/21 07:23:34;;;;;;;0.1;0.1;;;;;;;13.98;52.36426;935.0822;;;;
2021/05/21 07:26:00;;;;;;;0.2;0.2;;;;;;;14;52.6084;935.0051;;;;
2021/05/21 07:28:25;;;;;;;0.8;0.3;;;;;;;14.17;51.56934;934.9333;;;;
2021/05/21 07:30:52;;;;;;;1.6;0.9;;;;;;;14.09;52.78027;934.8061;;;;
2021/05/21 07:33:17;;;;;;;1.5;1;;;;;;;14.03;52.83008;934.8122;;;;
2021/05/21 07:35:45;;;;;;;2.8;1.1;;;;;;;14.28;55.04883;934.6683;;;;
2021/05/21 07:38:10;;;;;;;1.3;0.8;;;;;;;14.48;54.3252;934.7492;;;;
2021/05/21 07:40:39;;;;;;;1.7;0.5;;;;;;;14.54;54.33203;934.7189;;;;
2021/05/21 07:43:03;;;;;;;1.2;0.4;;;;;;;14.86;54.68359;934.7059;;;;
2021/05/21 07:45:29;;;;;;;0.6;0.3;;;;;;;15.1;53.0752;934.6141;;;;
2021/05/21 07:47:54;;;;;;;0.9;0.3;;;;;;;15.34;53.16211;934.5075;;;;
2021/05/21 07:50:21;;;;;;;0.2;0.2;;;;;;;15.27;52.46191;934.5156;;;;
2021/05/21 07:52:46;;;;;;;1;0.7;;;;;;;14.72;55.27637;934.5183;;;;
2021/05/21 07:55:13;;;;;;;0.5;0.4;;;;;;;14.81;54.80469;934.4866;;;;
2021/05/21 07:57:38;;;;;;;0.3;0.3;;;;;;;15.04;54.31348;934.4497;;;;
2021/05/21 08:00:04;;;;;;;0.1;0.1;;;;;;;15.18;52.66992;934.4067;;;;
2021/05/21 08:02:29;;;;;;;0.4;0.2;;;;;;;15.33;53.1709;934.3311;;;;
2021/05/21 08:04:58;;;;;;;0.9;0.2;;;;;;;15.34;52.00781;934.2739;;;;
2021/05/21 08:07:23;;;;;;;0.3;0.2;;;;;;;15.42;51.00195;934.1848;;;;
2021/05/21 08:09:51;;;;;;;0.3;0.3;;;;;;;15.88;51.25098;934.1652;;;;
2021/05/21 08:12:15;;;;;;;0.4;0.2;;;;;;;16.34;49.8125;934.1412;;;;
2021/05/21 08:14:41;;;;;;;0.3;0.2;;;;;;;16.94;47.42383;934.1221;;;;
2021/05/21 08:17:09;;;;;;;0.1;0.1;;;;;;;17.4;46.2793;934.1534;;;;
2021/05/21 08:19:33;;;;;;;2.5;1.1;;;;;;;17.76;46.17773;934.0006;;;;
2021/05/21 08:21:58;;;;;;;1.3;1.2;;;;;;;17.9;45.94824;933.9071;;;;
2021/05/21 08:24:24;;;;;;;1.2;0.3;;;;;;;18.01;44.19531;933.9967;;;;
2021/05/21 08:26:49;;;;;;;0.3;0.3;;;;;;;17.33;44.3584;933.998;;;;
2021/05/21 08:29:14;;;;;;;0.7;0.3;;;;;;;16.71;44.86328;934.1531;;;;
2021/05/21 08:31:39;;;;;;;0.6;0.3;;;;;;;15.86;46.76465;934.2152;;;;
2021/05/21 08:34:05;;;;;;;0.3;0.3;;;;;;;15.85;50.72754;934.1736;;;;
2021/05/21 08:36:31;;;;;;;0.5;0.4;;;;;;;15.79;51.53027;934.1046;;;;
2021/05/21 08:38:56;;;;;;;2;0.2;;;;;;;15.98;48.48828;934.1434;;;;
2021/05/21 08:41:21;;;;;;;1.4;0.3;;;;;;;16.29;50.52344;934.2715;;;;
2021/05/21 08:43:48;;;;;;;0.4;0.2;;;;;;;16.35;49.08301;934.2134;;;;
2021/05/21 08:46:12;;;;;;;0.2;0.2;;;;;;;16.4;47.99121;934.2227;;;;
2021/05/21 08:48:37;;;;;;;0.4;0.3;;;;;;;16.02;47.83301;934.2408;;;;
2021/05/21 08:51:04;;;;;;;0.3;0.2;;;;;;;15.63;50.83008;934.1145;;;;
2021/05/21 08:53:29;;;;;;;0.1;0.1;;;;;;;15.3;51.8877;934.1221;;;;
2021/05/21 08:55:59;;;;;;;0.1;0.1;;;;;;;15.57;52.05859;934.1278;;;;
2021/05/21 08:58:27;;;;;;;3.7;1.1;;;;;;;15.84;52.55273;934.067;;;;
2021/05/21 09:00:52;;;;;;;4.1;0.9;;;;;;;16;51.48438;934.0442;;;;
2021/05/21 09:03:17;;;;;;;2.6;0.4;;;;;;;16.12;50.52734;933.9659;;;;
2021/05/21 09:05:42;;;;;;;0.8;0.4;;;;;;;16.35;49.04883;933.9498;;;;
2021/05/21 09:08:07;;;;;;;1.1;0.3;;;;;;;16.73;48.18848;933.9397;;;;
2021/05/21 09:10:32;;;;;;;1.4;0.5;;;;;;;17.05;48.0625;933.9872;;;;
2021/05/21 09:12:59;;;;;;;2.2;0.2;;;;;;;17.76;47.79199;933.928;;;;
2021/05/21 09:15:32;;;;;;;0.5;0.3;;;;;;;18.64;44.0127;933.8014;;;;
2021/05/21 09:17:57;;;;;;;0.3;0.2;;;;;;;19.1;39.32031;933.8223;;;;
2021/05/21 09:20:22;;;;;;;0.2;0.1;;;;;;;18.83;37.05078;933.8914;;;;
2021/05/21 09:22:47;;;;;;;0.4;0.4;;;;;;;19.5;38.20215;933.8506;;;;
2021/05/21 09:25:15;;;;;;;0.7;0.4;;;;;;;19.77;36.94238;933.8297;;;;
2021/05/21 09:31:11;;;;;;;1.9;0;;;;;;;19.59;34.63184;933.6558;;;;
2021/05/21 09:33:38;;;;;;;0.2;0.2;;;;;;;19.61;38.27051;933.769;;;;
2021/05/21 09:36:55;;;;;;;0;0;;;;;;;19.26;36.50391;933.7603;;;;
2021/05/21 09:39:23;;;;;;;1.7;0.2;;;;;;;18.9;37.47559;933.7198;;;;
2021/05/21 09:41:49;;;;;;;0.1;0;;;;;;;19.05;35.98633;933.6906;;;;
2021/05/21 09:44:13;;;;;;;0;0;;;;;;;19.06;36.09277;933.6225;;;;
2021/05/21 09:46:41;;;;;;;0.5;0.2;;;;;;;18.85;38.21582;933.5922;;;;
2021/05/21 09:49:06;;;;;;;1.5;0.5;;;;;;;19.04;38.0459;933.5892;;;;
2021/05/21 09:51:32;;;;;;;0.3;0.2;;;;;;;19.4;37.58789;933.6516;;;;
2021/05/21 09:53:57;;;;;;;0.1;0.1;;;;;;;19.36;37.63184;933.6626;;;;
2021/05/21 09:56:25;;;;;;;0.1;0.1;;;;;;;19.38;39.4043;933.7266;;;;
2021/05/21 09:58:59;;;;;;;0.1;0.1;;;;;;;19.2;38.11816;933.6981;;;;
2021/05/21 10:01:20;;;;;;;0;0;;;;;;;19.6;37.46484;933.7057;;;;
2021/05/21 10:03:46;;;;;;;0.3;0.3;;;;;;;19.55;37.05371;933.6677;;;;
2021/05/21 10:06:11;;;;;;;0;0;;;;;;;19.83;38.3125;933.7101;;;;
2021/05/21 10:08:42;;;;;;;0.2;0.1;;;;;;;19.82;36.66699;933.6267;;;;
2021/05/21 10:11:06;;;;;;;0.1;0.1;;;;;;;19.84;33.68359;933.5697;;;;
2021/05/21 10:13:32;;;;;;;0.2;0.1;;;;;;;19.68;38.59082;933.486;;;;
2021/05/21 10:16:07;;;;;;;3.9;0.3;;;;;;;19.53;37.21387;933.509;;;;
2021/05/21 10:18:35;;;;;;;0.2;0.1;;;;;;;19.76;38.14258;933.4931;;;;
2021/05/21 10:21:00;;;;;;;0.2;0.1;;;;;;;19.96;37.57715;933.4808;;;;
2021/05/21 10:23:30;;;;;;;0.1;0.1;;;;;;;20;41;933.4738;;;;
2021/05/21 10:25:55;;;;;;;0.1;0.1;;;;;;;19.91;40.09277;933.4114;;;;
2021/05/21 10:28:24;;;;;;;0.2;0.2;;;;;;;19.78;39.16016;933.4536;;;;
2021/05/21 10:30:50;;;;;;;0.3;0.2;;;;;;;19.83;40.5293;933.3259;;;;
2021/05/21 10:33:20;;;;;;;0.1;0.1;;;;;;;19.99;41.62695;933.2625;;;;
2021/05/21 10:35:43;;;;;;;0.1;0.1;;;;;;;20.13;41.16309;933.1848;;;;
2021/05/21 10:38:08;;;;;;;0.1;0.1;;;;;;;20.25;42.02539;933.157;;;;
2021/05/21 10:40:33;;;;;;;1;0.2;;;;;;;20.18;42.86035;933.2117;;;;
2021/05/21 10:43:00;;;;;;;0.6;0.2;;;;;;;20.48;42.04785;933.1046;;;;
2021/05/21 10:45:24;;;;;;;1.3;0.4;;;;;;;20.65;40.21875;933.1177;;;;
2021/05/21 10:47:50;;;;;;;0.1;0.1;;;;;;;20.52;39.85645;933.2017;;;;
2021/05/21 10:50:18;;;;;;;0;0;;;;;;;20.67;37.19434;933.2556;;;;
2021/05/21 10:52:41;;;;;;;0.2;0.2;;;;;;;20.61;38.11133;933.2405;;;;
2021/05/21 10:55:06;;;;;;;3.7;0.5;;;;;;;20.21;41.08887;933.2566;;;;
2021/05/21 10:57:31;;;;;;;0.1;0.1;;;;;;;20.04;40.31445;933.2191;;;;
2021/05/21 10:59:59;;;;;;;0.4;0.2;;;;;;;19.23;41.69629;933.1356;;;;
2021/05/21 11:02:23;;;;;;;0.4;0.2;;;;;;;19.12;42.95605;933.0902;;;;
2021/05/21 11:04:48;;;;;;;0.3;0.2;;;;;;;19.22;41.91699;933.0519;;;;
2021/05/21 11:07:14;;;;;;;0.3;0.1;;;;;;;19.33;41.15723;933.1027;;;;
2021/05/21 11:09:40;;;;;;;0.1;0.1;;;;;;;19.14;41.9209;933.0129;;;;
2021/05/21 11:12:08;;;;;;;1.8;0.4;;;;;;;19.23;41.70801;932.9976;;;;
2021/05/21 11:14:33;;;;;;;0.1;0.1;;;;;;;19.63;41.23242;932.9846;;;;
2021/05/21 11:16:59;;;;;;;0.1;0.1;;;;;;;19.55;39.55957;932.9214;;;;
2021/05/21 11:19:24;;;;;;;0.2;0.2;;;;;;;19.4;41.66602;932.8983;;;;
2021/05/21 11:21:49;;;;;;;0;0;;;;;;;19.6;40.25098;932.8817;;;;
2021/05/21 11:24:14;;;;;;;0;0;;;;;;;19.68;39.2207;932.8632;;;;
2021/05/21 11:26:42;;;;;;;0;0;;;;;;;19.82;39.88574;932.9529;;;;
2021/05/21 11:29:07;;;;;;;0.1;0;;;;;;;19.81;40.31641;932.9154;;;;
2021/05/21 11:31:33;;;;;;;0.1;0;;;;;;;19.51;39.96289;933.008;;;;
2021/05/21 11:33:59;;;;;;;2.2;0.2;;;;;;;19.7;40.82031;932.9288;;;;
2021/05/21 11:36:23;;;;;;;0.1;0.1;;;;;;;19.71;39.91113;932.8622;;;;
2021/05/21 11:38:49;;;;;;;0.1;0.1;;;;;;;19.78;41.10742;932.9294;;;;
2021/05/21 11:41:14;;;;;;;0.4;0.2;;;;;;;19.38;41.37305;932.9506;;;;
2021/05/21 11:43:39;;;;;;;0.1;0.1;;;;;;;19.16;45.62598;932.9422;;;;
2021/05/21 11:46:05;;;;;;;0.3;0.1;;;;;;;19.13;41.52539;932.8381;;;;
2021/05/21 11:48:30;;;;;;;0;0;;;;;;;19.12;41.24414;932.8524;;;;
2021/05/21 11:50:58;;;;;;;0;0;;;;;;;18.81;40.77246;932.9455;;;;
2021/05/21 11:53:23;;;;;;;0.1;0.1;;;;;;;18.52;42.43164;932.8979;;;;
2021/05/21 11:55:52;;;;;;;0;0;;;;;;;18.43;41.74805;932.9771;;;;
2021/05/21 11:58:17;;;;;;;0.1;0.1;;;;;;;18.11;43.24023;933.0477;;;;
2021/05/21 12:00:45;;;;;;;0;0;;;;;;;17.99;44.64551;933.0709;;;;
2021/05/21 12:03:10;;;;;;;0.1;0.1;;;;;;;17.94;44.38477;933.0869;;;;
2021/05/21 12:05:36;;;;;;;0.5;0.2;;;;;;;17.85;45.93164;933.1432;;;;
2021/05/21 12:08:01;;;;;;;0.2;0.1;;;;;;;17.78;45.53027;933.222;;;;
2021/05/21 12:10:27;;;;;;;0.1;0.1;;;;;;;17.44;48.01074;933.2391;;;;
2021/05/21 12:12:52;;;;;;;0.1;0.1;;;;;;;17.27;49.16406;933.2341;;;;
2021/05/21 12:15:24;;;;;;;1.4;0.4;;;;;;;17.13;50.2959;933.168;;;;
2021/05/21 12:17:52;;;;;;;0.1;0.1;;;;;;;16.97;50.18555;933.1329;;;;
2021/05/21 12:20:17;;;;;;;0;0;;;;;;;16.84;51.02832;933.0554;;;;
2021/05/21 12:22:42;;;;;;;2.6;0.7;;;;;;;16.96;50.82129;933.0776;;;;
2021/05/21 12:25:11;;;;;;;1;0.5;;;;;;;16.95;50.75;933.1454;;;;
2021/05/21 12:27:36;;;;;;;1.2;0.3;;;;;;;16.98;50.80078;933.1994;;;;
2021/05/21 12:30:03;;;;;;;0;0;;;;;;;16.99;52.91113;933.1646;;;;
2021/05/21 12:32:28;;;;;;;0.2;0.2;;;;;;;16.6;52.73633;933.1853;;;;
2021/05/21 12:34:53;;;;;;;0.1;0.1;;;;;;;16.7;51.68359;933.1685;;;;
2021/05/21 12:37:18;;;;;;;0.1;0.1;;;;;;;16.69;51.46191;933.0416;;;;
2021/05/21 12:39:44;;;;;;;0;0;;;;;;;16.61;53.18945;933.1216;;;;
2021/05/21 12:42:09;;;;;;;0.1;0.1;;;;;;;16.73;51.43164;933.2723;;;;
2021/05/21 12:44:38;;;;;;;0.8;0.3;;;;;;;16.63;52.79785;933.2896;;;;
2021/05/21 12:47:04;;;;;;;0.1;0.1;;;;;;;16.55;52.59082;933.3561;;;;
2021/05/21 12:49:29;;;;;;;0.1;0.1;;;;;;;16.49;54.00879;933.2978;;;;
2021/05/21 12:51:56;;;;;;;0.2;0.1;;;;;;;16.52;53.54883;933.3061;;;;
2021/05/21 12:54:20;;;;;;;0;0;;;;;;;16.54;54.06152;933.3433;;;;
2021/05/21 12:56:46;;;;;;;0;0;;;;;;;16.46;55.6709;933.3821;;;;
2021/05/21 12:59:11;;;;;;;0.2;0.1;;;;;;;16.46;55.3125;933.308;;;;
2021/05/21 13:01:36;;;;;;;3.6;0.6;;;;;;;16.35;55.85352;933.3133;;;;
2021/05/21 13:04:01;;;;;;;0.3;0.2;;;;;;;16.53;54.53516;933.321;;;;
2021/05/21 13:06:29;;;;;;;0.1;0.1;;;;;;;16.61;54.9834;933.3508;;;;
2021/05/21 13:08:54;;;;;;;0;0;;;;;;;16.77;53.26563;933.4637;;;;
2021/05/21 13:11:19;;;;;;;0.6;0.3;;;;;;;16.81;54.25586;933.4861;;;;
2021/05/21 13:13:46;;;;;;;0.5;0.3;;;;;;;16.71;55.5293;933.4456;;;;
2021/05/21 13:16:11;;;;;;;1.9;0.2;;;;;;;16.68;54.95703;933.4841;;;;
2021/05/21 13:18:37;;;;;;;0.1;0.1;;;;;;;16.65;55.6377;933.4562;;;;
2021/05/21 13:21:02;;;;;;;1;0.1;;;;;;;16.77;54.43652;933.4354;;;;
2021/05/21 13:23:30;;;;;;;0.9;0.3;;;;;;;16.99;55.01953;933.4461;;;;
2021/05/21 13:25:57;;;;;;;0;0;;;;;;;17.1;53.37598;933.5316;;;;
2021/05/21 13:28:22;;;;;;;0.7;0.2;;;;;;;16.97;53.58203;933.6845;;;;
2021/05/21 13:30:47;;;;;;;0.7;0.2;;;;;;;17.24;53.18457;933.6315;;;;
2021/05/21 13:33:14;;;;;;;0.1;0.1;;;;;;;17.24;52.88184;933.6323;;;;
2021/05/21 13:35:39;;;;;;;0.1;0.1;;;;;;;17.1;53.94336;933.6949;;;;
2021/05/21 13:38:04;;;;;;;0;0;;;;;;;17.16;52.68848;933.6185;;;;
2021/05/21 13:40:30;;;;;;;0;0;;;;;;;16.94;53.91211;933.5527;;;;
2021/05/21 13:42:55;;;;;;;0.2;0.1;;;;;;;16.89;55.07715;933.5562;;;;
2021/05/21 13:45:20;;;;;;;0.5;0.1;;;;;;;16.82;55.46191;933.6282;;;;
2021/05/21 13:47:46;;;;;;;0.4;0.2;;;;;;;16.97;54.15918;933.6163;;;;
2021/05/21 13:50:13;;;;;;;0.1;0.1;;;;;;;16.89;56.28223;933.5666;;;;
2021/05/21 13:52:38;;;;;;;0.4;0.1;;;;;;;16.36;55.31055;933.5792;;;;
2021/05/21 13:55:04;;;;;;;0.2;0.1;;;;;;;15.95;58.79785;933.5744;;;;
2021/05/21 13:57:30;;;;;;;0.2;0.2;;;;;;;15.6;60.35547;933.6036;;;;
2021/05/21 13:59:55;;;;;;;0;0;;;;;;;15.32;60.29395;933.565;;;;
2021/05/21 14:02:21;;;;;;;0.1;0.1;;;;;;;15.33;61.05664;933.5023;;;;
2021/05/21 14:04:46;;;;;;;0.2;0.1;;;;;;;15.37;61.22461;933.4696;;;;
2021/05/21 14:07:14;;;;;;;0.8;0.3;;;;;;;15.52;61.56934;933.5219;;;;
2021/05/21 14:09:40;;;;;;;0.3;0.3;;;;;;;15.69;60.72656;933.416;;;;
2021/05/21 14:12:05;;;;;;;0;0;;;;;;;15.48;57.68164;933.4697;;;;
2021/05/21 14:14:30;;;;;;;0;0;;;;;;;15.17;60.27344;933.5792;;;;
2021/05/21 14:16:56;;;;;;;0.1;0.1;;;;;;;15.28;60.06934;933.6019;;;;
2021/05/21 14:19:20;;;;;;;0;0;;;;;;;15.32;60.44336;933.6348;;;;
2021/05/21 14:21:46;;;;;;;0.2;0.1;;;;;;;15.42;60.37793;933.6191;;;;
2021/05/21 14:24:11;;;;;;;0.5;0;;;;;;;15.27;59.17773;933.5139;;;;
2021/05/21 14:26:38;;;;;;;0.1;0.1;;;;;;;15.31;60.70898;933.5234;;;;
2021/05/21 14:29:07;;;;;;;0.2;0.2;;;;;;;15.41;58.74609;933.5797;;;;
2021/05/21 14:31:29;;;;;;;1.2;0.2;;;;;;;15.53;59.44629;933.5016;;;;
2021/05/21 14:33:59;;;;;;;0.1;0.1;;;;;;;15.73;58.80176;933.3736;;;;
2021/05/21 14:36:19;;;;;;;0.1;0.1;;;;;;;15.81;58.73145;933.2734;;;;
2021/05/21 14:38:46;;;;;;;0.1;0.1;;;;;;;15.93;56.44824;933.4641;;;;
2021/05/21 14:41:11;;;;;;;0;0;;;;;;;16.07;56.01465;933.387;;;;
2021/05/21 14:43:37;;;;;;;0.2;0.2;;;;;;;16.25;55.86523;933.4166;;;;
2021/05/21 14:46:01;;;;;;;0.1;0.1;;;;;;;16.26;56.67578;933.3521;;;;
2021/05/21 14:48:29;;;;;;;2.9;0.4;;;;;;;16.31;55.66406;933.4339;;;;
2021/05/21 14:50:54;;;;;;;0;0;;;;;;;16.4;53.85742;933.486;;;;
2021/05/21 14:53:20;;;;;;;0.3;0.1;;;;;;;16.35;55.92188;933.4758;;;;
2021/05/21 14:55:45;;;;;;;0;0;;;;;;;15.86;58.23047;933.4631;;;;
2021/05/21 14:58:11;;;;;;;0;0;;;;;;;15.4;60.6748;933.4587;;;;
2021/05/21 15:00:35;;;;;;;0.5;0.2;;;;;;;15.1;60.54102;933.4841;;;;
2021/05/21 15:03:02;;;;;;;0.1;0.1;;;;;;;15.02;61.62402;933.4469;;;;
2021/05/21 15:05:29;;;;;;;0.2;0.1;;;;;;;14.96;60.63574;933.3809;;;;
2021/05/21 15:07:51;;;;;;;0.8;0.2;;;;;;;14.8;61.65234;933.3453;;;;
2021/05/21 15:10:19;;;;;;;0;0;;;;;;;14.56;61.56055;933.3773;;;;
2021/05/21 15:12:42;;;;;;;0.1;0.1;;;;;;;14.44;62.05078;933.4142;;;;
2021/05/21 15:15:18;;;;;;;0.3;0.2;;;;;;;14.65;62.0459;933.2874;;;;
2021/05/21 15:17:54;;;;;;;0;0;;;;;;;14.49;63.62402;933.0458;;;;
2021/05/21 15:25:06;;;;;;;0.4;0;;;;;;;15.36;59.08691;932.8978;;;;
2021/05/21 15:27:36;;;;;;;0.1;0.1;;;;;;;15.58;59.3252;932.7817;;;;
2021/05/21 15:30:01;;;;;;;8.3;0.2;;;;;;;15.92;58.78223;932.666;;;;
2021/05/21 15:32:26;;;;;;;0.1;0.1;;;;;;;16.36;56.49121;932.5884;;;;
2021/05/21 15:34:51;;;;;;;0;0;;;;;;;16.48;55.29199;932.6583;;;;
2021/05/21 15:37:24;;;;;;;0.1;0.1;;;;;;;16.32;55.35254;932.6117;;;;
2021/05/21 15:40:55;;;;;;;0.1;0.1;;;;;;;16.23;55.75781;932.555;;;;
2021/05/21 15:45:50;;;;;;;0.1;0.1;;;;;;;16.15;56.78809;932.668;;;;
2021/05/21 15:48:10;;;;;;;0.2;0.1;;;;;;;16.17;56.76758;932.7784;;;;
2021/05/21 15:50:43;;;;;;;0.1;0;;;;;;;16.15;57.45898;932.7484;;;;
2021/05/21 15:53:50;;;;;;;0.1;0.1;;;;;;;16.13;56.95898;932.6019;;;;
2021/05/21 15:55:38;;;;;;;0.4;0.2;;;;;;;16.17;56.8252;932.6372;;;;
2021/05/21 15:57:57;;;;;;;0.4;0.3;;;;;;;15.96;57.75781;932.5561;;;;